Time;durP1;ratioP1;P1;durP2;ratioP2;P2;SDS_P1;SDS_P2;PMS_P1;PMS_P2;Temp;Humidity;BMP_temperature;BMP_pressure;BME280_temperature;BME280_humidity;BME280_pressure;Samples;Min_cycle;Max_cycle;Signal;HPM_P1;HPM_P2
2021/07/16 00:00:12;;;;;;;0.50;0.30;;;18.50;99.90;;;;;;5036459;28;20497;-84
2021/07/16 00:02:39;;;;;;;0.50;0.40;;;18.50;99.90;;;;;;5037967;28;20549;-82
2021/07/16 00:05:07;;;;;;;0.57;0.50;;;18.50;99.90;;;;;;5037276;28;20449;-81
2021/07/16 00:07:34;;;;;;;0.50;0.30;;;18.50;99.90;;;;;;5036398;28;20431;-83
2021/07/16 00:10:01;;;;;;;0.50;0.30;;;18.50;99.90;;;;;;5037365;28;20970;-83
2021/07/16 00:12:29;;;;;;;0.50;0.30;;;18.50;99.90;;;;;;5037267;28;20435;-82
2021/07/16 00:14:55;;;;;;;0.50;0.40;;;18.40;99.90;;;;;;5037375;28;20439;-84
2021/07/16 00:17:22;;;;;;;0.60;0.50;;;18.40;99.90;;;;;;5037365;28;20466;-82
2021/07/16 00:19:49;;;;;;;0.50;0.30;;;18.40;99.90;;;;;;5040304;28;20433;-80
2021/07/16 00:22:16;;;;;;;0.60;0.50;;;18.40;99.90;;;;;;5043148;28;20438;-81
2021/07/16 00:24:42;;;;;;;6.53;2.70;;;18.40;99.90;;;;;;5038640;28;21027;-83
2021/07/16 00:27:09;;;;;;;0.50;0.40;;;18.40;99.90;;;;;;5037618;28;20469;-81
2021/07/16 00:29:37;;;;;;;0.50;0.30;;;18.40;99.90;;;;;;5038006;28;20438;-84
2021/07/16 00:32:05;;;;;;;0.50;0.30;;;18.40;99.90;;;;;;5038324;28;20489;-84
2021/07/16 00:34:31;;;;;;;0.67;0.67;;;18.30;99.90;;;;;;5038070;28;20540;-83
2021/07/16 00:36:58;;;;;;;0.50;0.30;;;18.30;99.90;;;;;;5038342;28;20464;-84
2021/07/16 00:39:25;;;;;;;0.60;0.50;;;18.30;99.90;;;;;;5038357;28;20441;-84
2021/07/16 00:41:51;;;;;;;0.50;0.30;;;18.30;99.90;;;;;;5038273;28;20499;-84
2021/07/16 00:44:20;;;;;;;0.70;0.70;;;18.30;99.90;;;;;;5037948;28;20439;-81
2021/07/16 00:46:48;;;;;;;0.50;0.30;;;18.30;99.90;;;;;;5037637;28;20509;-84
2021/07/16 00:49:15;;;;;;;0.50;0.30;;;18.30;99.90;;;;;;5038833;28;20821;-83
2021/07/16 00:51:42;;;;;;;0.50;0.30;;;18.30;99.90;;;;;;5037568;28;20447;-83
2021/07/16 00:54:09;;;;;;;0.50;0.30;;;18.30;99.90;;;;;;5037886;28;20859;-84
2021/07/16 00:56:36;;;;;;;2.13;2.00;;;18.20;99.90;;;;;;5036929;28;20474;-83
2021/07/16 00:59:03;;;;;;;0.50;0.30;;;18.20;99.90;;;;;;5037436;28;20954;-84
2021/07/16 01:01:30;;;;;;;0.50;0.30;;;18.20;99.90;;;;;;5038136;28;20427;-82
2021/07/16 01:03:58;;;;;;;0.50;0.30;;;18.20;99.90;;;;;;5045863;28;20434;-82
2021/07/16 01:06:25;;;;;;;0.50;0.30;;;18.20;99.90;;;;;;5038708;28;20474;-84
2021/07/16 01:08:52;;;;;;;0.50;0.30;;;18.20;99.90;;;;;;5038189;28;20430;-83
2021/07/16 01:11:18;;;;;;;1.40;1.30;;;18.20;99.90;;;;;;5038216;28;20438;-83
2021/07/16 01:13:45;;;;;;;0.50;0.30;;;18.20;99.90;;;;;;5037471;28;20513;-84
2021/07/16 01:16:12;;;;;;;0.50;0.30;;;18.20;99.90;;;;;;5036932;28;20489;-84
2021/07/16 01:18:39;;;;;;;0.50;0.30;;;18.20;99.90;;;;;;5037634;28;20454;-84
2021/07/16 01:21:07;;;;;;;0.50;0.30;;;18.10;99.90;;;;;;5036722;28;20442;-84
2021/07/16 01:23:36;;;;;;;0.50;0.50;;;18.10;99.90;;;;;;5037217;28;20434;-84
2021/07/16 01:26:05;;;;;;;0.50;0.40;;;18.10;99.90;;;;;;5036185;28;20465;-80
2021/07/16 01:28:32;;;;;;;0.50;0.30;;;18.10;99.90;;;;;;5036593;28;20444;-84
2021/07/16 01:30:59;;;;;;;2.53;2.43;;;18.10;99.90;;;;;;5036934;28;20434;-84
2021/07/16 01:33:26;;;;;;;1.70;0.80;;;18.10;99.90;;;;;;5038922;28;20497;-84
2021/07/16 01:35:53;;;;;;;0.50;0.40;;;18.00;99.90;;;;;;5040883;28;20474;-84
2021/07/16 01:38:20;;;;;;;1.33;0.77;;;18.00;99.90;;;;;;5040224;28;20811;-84
2021/07/16 01:40:48;;;;;;;0.50;0.40;;;17.90;99.90;;;;;;5039364;28;20430;-84
2021/07/16 01:43:15;;;;;;;0.50;0.30;;;17.90;99.90;;;;;;5040219;28;20494;-81
2021/07/16 01:45:43;;;;;;;0.70;0.60;;;17.90;99.90;;;;;;5039995;28;20466;-83
2021/07/16 01:48:11;;;;;;;0.60;0.50;;;17.90;99.90;;;;;;5039883;28;21001;-82
2021/07/16 01:50:41;;;;;;;0.50;0.50;;;17.80;99.90;;;;;;5039521;28;20446;-84
2021/07/16 01:53:09;;;;;;;0.77;0.67;;;17.80;99.90;;;;;;5040056;28;20463;-84
2021/07/16 01:55:36;;;;;;;0.50;0.33;;;17.80;99.90;;;;;;5039838;28;20451;-84
2021/07/16 01:58:07;;;;;;;0.50;0.40;;;17.80;99.90;;;;;;5039345;28;20442;-84
2021/07/16 02:00:35;;;;;;;0.50;0.40;;;17.80;99.90;;;;;;5039938;28;20447;-84
2021/07/16 02:03:04;;;;;;;1.27;0.90;;;17.80;99.90;;;;;;5039425;28;20447;-84
2021/07/16 02:05:31;;;;;;;0.50;0.30;;;17.70;99.90;;;;;;5039870;28;20473;-84
2021/07/16 02:07:59;;;;;;;1.00;1.00;;;17.70;99.90;;;;;;5038591;28;20477;-84
2021/07/16 02:10:27;;;;;;;0.50;0.30;;;17.80;99.90;;;;;;5040229;28;20458;-84
2021/07/16 02:12:54;;;;;;;0.50;0.30;;;17.70;99.90;;;;;;5039228;28;20439;-84
2021/07/16 02:15:23;;;;;;;0.50;0.30;;;17.80;99.90;;;;;;5039945;28;20442;-84
2021/07/16 02:17:50;;;;;;;0.50;0.30;;;17.70;99.90;;;;;;5038995;28;20723;-84
2021/07/16 02:20:22;;;;;;;1.73;1.07;;;17.70;99.90;;;;;;5039238;28;20446;-82
2021/07/16 02:22:49;;;;;;;0.50;0.40;;;17.70;99.90;;;;;;5039323;28;20446;-83
2021/07/16 02:25:17;;;;;;;0.50;0.30;;;17.60;99.90;;;;;;5038938;28;20461;-84
2021/07/16 02:27:45;;;;;;;0.50;0.30;;;17.60;99.90;;;;;;5038758;28;20453;-84
2021/07/16 02:30:13;;;;;;;0.50;0.33;;;17.60;99.90;;;;;;5038215;28;20431;-84
2021/07/16 02:32:41;;;;;;;0.50;0.30;;;17.60;99.90;;;;;;5038826;28;20446;-83
2021/07/16 02:35:09;;;;;;;0.50;0.30;;;17.50;99.90;;;;;;5039190;28;20483;-82
2021/07/16 02:37:35;;;;;;;0.50;0.30;;;17.50;99.90;;;;;;5038539;28;20453;-84
2021/07/16 02:40:04;;;;;;;0.50;0.40;;;17.50;99.90;;;;;;5039115;28;20448;-82
2021/07/16 02:42:30;;;;;;;0.50;0.30;;;17.50;99.90;;;;;;5038852;28;20442;-84
2021/07/16 02:44:57;;;;;;;0.50;0.30;;;17.50;99.90;;;;;;5037845;28;20439;-84
2021/07/16 02:47:24;;;;;;;0.50;0.30;;;17.50;99.90;;;;;;5038470;28;20828;-84
2021/07/16 02:49:52;;;;;;;0.50;0.30;;;17.50;99.90;;;;;;5042285;28;20446;-84
2021/07/16 02:52:19;;;;;;;0.50;0.30;;;17.50;99.90;;;;;;5039507;28;20438;-84
2021/07/16 02:54:45;;;;;;;0.50;0.40;;;17.50;99.90;;;;;;5038901;28;20505;-84
2021/07/16 02:57:12;;;;;;;2.40;2.20;;;17.50;99.90;;;;;;5038551;28;20466;-84
2021/07/16 02:59:38;;;;;;;0.60;0.60;;;17.50;99.90;;;;;;5038007;28;20963;-83
2021/07/16 03:02:08;;;;;;;0.50;0.40;;;17.50;99.90;;;;;;5038277;28;20458;-83
2021/07/16 03:04:34;;;;;;;0.50;0.30;;;17.50;99.90;;;;;;5038524;28;20457;-84
2021/07/16 03:07:02;;;;;;;1.10;1.00;;;17.50;99.90;;;;;;5039157;28;20485;-83
2021/07/16 03:09:34;;;;;;;0.50;0.30;;;17.40;99.90;;;;;;5038600;28;20526;-84
2021/07/16 03:12:01;;;;;;;0.50;0.40;;;17.40;99.90;;;;;;5038338;28;20419;-84
2021/07/16 03:14:27;;;;;;;0.50;0.30;;;17.40;99.90;;;;;;5038071;28;20480;-83
2021/07/16 03:16:54;;;;;;;0.50;0.30;;;17.40;99.90;;;;;;5038242;28;20469;-83
2021/07/16 03:19:21;;;;;;;0.60;0.53;;;17.40;99.90;;;;;;5038788;28;20438;-84
2021/07/16 03:21:48;;;;;;;0.60;0.60;;;17.40;99.90;;;;;;5037564;28;21129;-83
2021/07/16 03:24:16;;;;;;;0.50;0.30;;;17.40;99.90;;;;;;5038085;28;20445;-83
2021/07/16 03:26:43;;;;;;;0.50;0.30;;;17.40;99.90;;;;;;5037334;28;20466;-84
2021/07/16 03:29:09;;;;;;;0.50;0.30;;;17.30;99.90;;;;;;5040413;28;20943;-82
2021/07/16 03:31:36;;;;;;;0.50;0.37;;;17.30;99.90;;;;;;5040027;28;20450;-84
2021/07/16 03:34:03;;;;;;;0.50;0.30;;;17.30;99.90;;;;;;5037760;28;20482;-83
2021/07/16 03:36:29;;;;;;;0.50;0.30;;;17.30;99.90;;;;;;5037961;28;20462;-84
2021/07/16 03:38:56;;;;;;;1.23;0.70;;;17.20;99.90;;;;;;5037783;28;20509;-83
2021/07/16 03:41:24;;;;;;;0.70;0.60;;;17.20;99.90;;;;;;5037698;28;20453;-83
2021/07/16 03:43:51;;;;;;;0.50;0.40;;;17.20;99.90;;;;;;5037292;28;20433;-84
2021/07/16 03:46:18;;;;;;;0.50;0.30;;;17.30;99.90;;;;;;5037538;28;21125;-84
2021/07/16 03:48:44;;;;;;;0.50;0.50;;;17.30;99.90;;;;;;5036966;28;20452;-84
2021/07/16 03:51:11;;;;;;;0.50;0.30;;;17.30;99.90;;;;;;5037316;28;20450;-82
2021/07/16 03:53:38;;;;;;;1.80;1.30;;;17.30;99.90;;;;;;5036878;28;20443;-83
2021/07/16 03:56:05;;;;;;;0.50;0.30;;;17.30;99.90;;;;;;5036888;28;20971;-82
2021/07/16 03:58:33;;;;;;;0.50;0.30;;;17.30;99.90;;;;;;5036851;28;20788;-83
2021/07/16 04:01:00;;;;;;;0.50;0.30;;;17.20;99.90;;;;;;5038216;28;20441;-83
2021/07/16 04:03:26;;;;;;;1.00;1.00;;;17.20;99.90;;;;;;5036901;28;20438;-83
2021/07/16 04:05:53;;;;;;;0.50;0.40;;;17.20;99.90;;;;;;5036660;28;20859;-84
2021/07/16 04:08:20;;;;;;;0.50;0.33;;;17.20;99.90;;;;;;5036952;28;20438;-83
2021/07/16 04:10:47;;;;;;;1.07;0.83;;;17.20;99.90;;;;;;5037772;28;20450;-84
2021/07/16 04:13:14;;;;;;;0.50;0.30;;;17.20;99.90;;;;;;5037984;28;20449;-85
2021/07/16 04:15:43;;;;;;;0.50;0.30;;;17.20;99.90;;;;;;5036518;28;20482;-83
2021/07/16 04:18:11;;;;;;;0.50;0.40;;;17.20;99.90;;;;;;5036393;28;20446;-84
2021/07/16 04:20:39;;;;;;;0.50;0.30;;;17.30;99.90;;;;;;5036901;28;20485;-84
2021/07/16 04:23:06;;;;;;;0.50;0.40;;;17.30;99.90;;;;;;5037535;28;20474;-84
2021/07/16 04:25:34;;;;;;;0.50;0.30;;;17.30;99.90;;;;;;5037225;28;20454;-84
2021/07/16 04:28:03;;;;;;;0.50;0.40;;;17.30;99.90;;;;;;5036462;28;20512;-84
2021/07/16 04:30:30;;;;;;;0.50;0.43;;;17.30;99.90;;;;;;5036865;28;20446;-84
2021/07/16 04:33:00;;;;;;;0.50;0.40;;;17.30;99.90;;;;;;5037025;28;20518;-84
2021/07/16 04:35:27;;;;;;;0.50;0.30;;;17.30;99.90;;;;;;5037073;28;20493;-82
2021/07/16 04:37:54;;;;;;;0.50;0.30;;;17.30;99.90;;;;;;5036399;28;20472;-81
2021/07/16 04:40:23;;;;;;;0.50;0.30;;;17.30;99.90;;;;;;5036842;28;20446;-82
2021/07/16 04:42:50;;;;;;;0.50;0.30;;;17.30;99.90;;;;;;5036103;28;20449;-81
2021/07/16 04:45:17;;;;;;;0.50;0.30;;;17.30;99.90;;;;;;5036371;28;20858;-82
2021/07/16 04:47:45;;;;;;;0.50;0.40;;;17.30;99.90;;;;;;5036570;28;20514;-82
2021/07/16 04:50:15;;;;;;;0.50;0.30;;;17.20;99.90;;;;;;5035749;28;20970;-81
2021/07/16 04:52:43;;;;;;;0.50;0.30;;;17.20;99.90;;;;;;5039428;28;20431;-82
2021/07/16 04:55:10;;;;;;;1.03;0.87;;;17.20;99.90;;;;;;5042058;28;20505;-82
2021/07/16 04:57:37;;;;;;;0.50;0.30;;;17.10;99.90;;;;;;5037555;28;20438;-82
2021/07/16 05:00:06;;;;;;;0.50;0.30;;;17.20;99.90;;;;;;5038293;28;20437;-83
2021/07/16 05:02:32;;;;;;;1.17;1.13;;;17.20;99.90;;;;;;5037739;28;20442;-82
2021/07/16 05:04:59;;;;;;;0.50;0.30;;;17.20;99.90;;;;;;5037858;28;20497;-82
2021/07/16 05:07:27;;;;;;;1.13;0.70;;;17.10;99.90;;;;;;5036978;28;20466;-82
2021/07/16 05:09:54;;;;;;;0.50;0.40;;;17.00;99.90;;;;;;5041648;28;20448;-82
2021/07/16 05:12:21;;;;;;;0.50;0.37;;;17.00;99.90;;;;;;5041350;28;20442;-83
2021/07/16 05:14:47;;;;;;;0.67;0.67;;;17.10;99.90;;;;;;5040842;28;20890;-83
2021/07/16 05:17:14;;;;;;;1.03;1.03;;;17.10;99.90;;;;;;5040137;28;20458;-81
2021/07/16 05:19:41;;;;;;;0.50;0.40;;;17.00;99.90;;;;;;5041050;28;20441;-84
2021/07/16 05:22:08;;;;;;;0.50;0.30;;;17.00;99.90;;;;;;5040838;28;20438;-83
2021/07/16 05:24:37;;;;;;;0.50;0.50;;;17.00;99.90;;;;;;5040887;28;20973;-82
2021/07/16 05:27:04;;;;;;;0.50;0.30;;;16.90;99.90;;;;;;5040768;28;20534;-81
2021/07/16 05:29:31;;;;;;;2.30;2.20;;;16.90;99.90;;;;;;5040244;28;20439;-82
2021/07/16 05:31:58;;;;;;;0.50;0.47;;;16.90;99.90;;;;;;5040860;28;20493;-82
2021/07/16 05:34:24;;;;;;;0.70;0.70;;;16.90;99.90;;;;;;5040972;28;20477;-82
2021/07/16 05:36:51;;;;;;;0.50;0.30;;;16.90;99.90;;;;;;5040204;28;20461;-82
2021/07/16 05:39:18;;;;;;;0.50;0.30;;;16.80;99.90;;;;;;5040405;28;20443;-81
2021/07/16 05:41:46;;;;;;;0.50;0.30;;;16.80;99.90;;;;;;5040109;28;21102;-82
2021/07/16 05:44:13;;;;;;;0.50;0.30;;;16.80;99.90;;;;;;5040132;28;20451;-80
2021/07/16 05:46:40;;;;;;;0.50;0.40;;;16.90;99.90;;;;;;5039388;28;20516;-80
2021/07/16 05:49:06;;;;;;;0.50;0.30;;;16.80;99.90;;;;;;5039083;28;20438;-81
2021/07/16 05:51:34;;;;;;;0.50;0.30;;;16.70;99.90;;;;;;5039936;28;20445;-83
2021/07/16 05:54:00;;;;;;;1.20;1.13;;;16.70;99.90;;;;;;5039642;28;20497;-80
2021/07/16 05:56:27;;;;;;;0.50;0.30;;;16.70;99.90;;;;;;5039053;28;20513;-82
2021/07/16 05:58:55;;;;;;;0.50;0.30;;;16.80;99.90;;;;;;5039068;28;20943;-82
2021/07/16 06:01:22;;;;;;;0.50;0.30;;;16.80;99.90;;;;;;5038857;28;20435;-82
2021/07/16 06:03:48;;;;;;;0.70;0.70;;;16.80;99.90;;;;;;5039613;28;20434;-81
2021/07/16 06:06:15;;;;;;;0.50;0.40;;;16.90;99.90;;;;;;5039090;28;20839;-81
2021/07/16 06:08:42;;;;;;;0.60;0.60;;;16.90;99.90;;;;;;5041041;28;20441;-82
2021/07/16 06:11:08;;;;;;;0.50;0.30;;;16.90;99.90;;;;;;5039682;28;20935;-81
2021/07/16 06:13:35;;;;;;;0.50;0.30;;;16.80;99.90;;;;;;5039673;28;20435;-82
2021/07/16 06:16:03;;;;;;;0.50;0.30;;;16.90;99.90;;;;;;5040012;28;20482;-82
2021/07/16 06:18:30;;;;;;;0.50;0.40;;;16.90;99.90;;;;;;5039182;28;20442;-82
2021/07/16 06:20:57;;;;;;;0.50;0.30;;;16.90;99.90;;;;;;5038086;28;20450;-82
2021/07/16 06:23:24;;;;;;;0.50;0.30;;;16.90;99.90;;;;;;5040314;28;20773;-82
2021/07/16 06:25:50;;;;;;;0.50;0.50;;;16.90;99.90;;;;;;5039089;28;20485;-83
2021/07/16 06:28:18;;;;;;;0.83;0.57;;;16.90;99.90;;;;;;5038987;28;20512;-83
2021/07/16 06:30:44;;;;;;;1.57;0.80;;;16.90;99.90;;;;;;5039609;28;20455;-83
2021/07/16 06:33:12;;;;;;;9.87;1.17;;;17.00;99.90;;;;;;5040118;28;20451;-82
2021/07/16 06:35:39;;;;;;;6.23;1.53;;;17.00;99.90;;;;;;5039039;28;20863;-83
2021/07/16 06:38:06;;;;;;;0.50;0.30;;;17.00;99.90;;;;;;5039628;28;20812;-83
2021/07/16 06:40:32;;;;;;;0.50;0.30;;;17.00;99.90;;;;;;5038977;28;20438;-83
2021/07/16 06:42:59;;;;;;;0.93;0.93;;;17.10;99.90;;;;;;5038130;28;20454;-82
2021/07/16 06:45:26;;;;;;;2.20;0.70;;;17.10;99.90;;;;;;5038280;28;20438;-83
2021/07/16 06:47:52;;;;;;;0.50;0.30;;;17.10;99.90;;;;;;5038657;28;20923;-81
2021/07/16 06:50:21;;;;;;;0.50;0.40;;;17.10;99.90;;;;;;5038446;28;20442;-83
2021/07/16 06:52:47;;;;;;;0.50;0.30;;;17.00;99.90;;;;;;5038332;28;20445;-83
2021/07/16 06:55:14;;;;;;;0.50;0.30;;;17.00;99.90;;;;;;5039436;28;20473;-83
2021/07/16 06:57:41;;;;;;;0.50;0.30;;;17.10;99.90;;;;;;5038764;28;20454;-84
2021/07/16 07:00:09;;;;;;;0.50;0.30;;;17.10;99.90;;;;;;5039202;28;21046;-84
2021/07/16 07:02:36;;;;;;;1.30;1.17;;;17.10;99.90;;;;;;5039903;28;20472;-84
2021/07/16 07:05:03;;;;;;;0.50;0.30;;;17.20;99.90;;;;;;5039716;28;20439;-83
2021/07/16 07:07:31;;;;;;;0.50;0.40;;;17.20;99.90;;;;;;5039359;28;20462;-83
2021/07/16 07:09:58;;;;;;;0.50;0.37;;;17.40;99.90;;;;;;5038230;28;20443;-83
2021/07/16 07:12:25;;;;;;;0.50;0.40;;;17.50;99.90;;;;;;5039327;28;20449;-83
2021/07/16 07:14:52;;;;;;;0.50;0.30;;;17.60;99.90;;;;;;5039209;28;20978;-84
2021/07/16 07:17:19;;;;;;;0.50;0.30;;;17.80;99.90;;;;;;5046970;28;20434;-83
2021/07/16 07:19:46;;;;;;;0.60;0.60;;;17.90;99.90;;;;;;5041525;28;20446;-84
2021/07/16 07:22:12;;;;;;;0.50;0.30;;;18.00;99.90;;;;;;5038160;28;20442;-84
2021/07/16 07:24:40;;;;;;;0.50;0.30;;;18.10;99.90;;;;;;5038519;28;20439;-84
2021/07/16 07:27:07;;;;;;;0.50;0.40;;;18.20;99.90;;;;;;5038183;28;20466;-84
2021/07/16 07:29:34;;;;;;;0.50;0.30;;;18.20;99.90;;;;;;5037445;28;20824;-84
2021/07/16 07:32:01;;;;;;;0.50;0.40;;;18.30;99.90;;;;;;5037563;28;20504;-84
2021/07/16 07:34:27;;;;;;;0.50;0.30;;;18.30;99.90;;;;;;5038106;28;20482;-84
2021/07/16 07:36:54;;;;;;;0.50;0.30;;;18.40;99.90;;;;;;5037619;28;20995;-83
2021/07/16 07:39:21;;;;;;;0.50;0.40;;;18.40;99.90;;;;;;5038691;28;20434;-84
2021/07/16 07:41:49;;;;;;;0.50;0.37;;;18.40;99.90;;;;;;5037887;28;20453;-84
2021/07/16 07:44:17;;;;;;;0.50;0.40;;;18.50;99.90;;;;;;5038272;28;20446;-84
2021/07/16 07:46:45;;;;;;;0.50;0.30;;;18.50;99.90;;;;;;5037652;28;20474;-85
2021/07/16 07:49:13;;;;;;;0.70;0.70;;;18.70;99.90;;;;;;5038513;28;20439;-84
2021/07/16 07:51:41;;;;;;;0.50;0.40;;;18.80;99.90;;;;;;5038583;28;20453;-85
2021/07/16 07:54:08;;;;;;;0.50;0.30;;;18.90;99.90;;;;;;5037741;28;20454;-85
2021/07/16 07:56:36;;;;;;;0.50;0.40;;;19.10;99.90;;;;;;5037669;28;20490;-84
2021/07/16 07:59:05;;;;;;;0.50;0.30;;;19.10;99.90;;;;;;5038130;28;20454;-85
2021/07/16 08:01:33;;;;;;;0.50;0.30;;;19.20;99.90;;;;;;5037908;28;20446;-85
2021/07/16 08:04:00;;;;;;;0.50;0.30;;;19.30;99.90;;;;;;5038386;28;20443;-84
2021/07/16 08:06:27;;;;;;;0.50;0.40;;;19.50;99.90;;;;;;5037005;28;20494;-84
2021/07/16 08:08:54;;;;;;;0.50;0.30;;;19.50;99.90;;;;;;5037609;28;20489;-85
2021/07/16 08:11:21;;;;;;;0.50;0.40;;;19.80;99.90;;;;;;5037434;28;20808;-83
2021/07/16 08:13:48;;;;;;;0.50;0.40;;;20.10;99.90;;;;;;5037214;28;20440;-84
2021/07/16 08:16:16;;;;;;;0.50;0.40;;;20.30;99.90;;;;;;5036775;28;20471;-85
2021/07/16 08:18:42;;;;;;;0.50;0.30;;;20.50;99.90;;;;;;5037483;28;20451;-85
2021/07/16 08:21:09;;;;;;;0.50;0.33;;;20.60;99.90;;;;;;5037697;28;20440;-85
2021/07/16 08:23:36;;;;;;;0.50;0.40;;;20.90;99.90;;;;;;5038031;28;20448;-84
2021/07/16 08:26:02;;;;;;;0.50;0.30;;;20.90;99.90;;;;;;5037275;28;20467;-81
2021/07/16 08:28:31;;;;;;;0.50;0.50;;;21.10;99.90;;;;;;5037497;28;20452;-84
2021/07/16 08:30:58;;;;;;;0.50;0.30;;;21.20;99.90;;;;;;5038166;28;20444;-84
2021/07/16 08:33:26;;;;;;;0.50;0.30;;;21.10;99.90;;;;;;5037706;28;20450;-85
2021/07/16 08:35:53;;;;;;;0.50;0.30;;;21.10;99.90;;;;;;5037354;28;20490;-84
2021/07/16 08:38:20;;;;;;;0.60;0.50;;;21.00;99.90;;;;;;5036401;28;20445;-82
2021/07/16 08:40:47;;;;;;;0.50;0.40;;;20.90;99.90;;;;;;5037427;28;20447;-84
2021/07/16 08:43:17;;;;;;;0.50;0.40;;;20.80;99.90;;;;;;5036580;28;20445;-84
2021/07/16 08:45:45;;;;;;;0.50;0.30;;;20.70;99.90;;;;;;5037681;28;20472;-84
2021/07/16 08:48:13;;;;;;;0.50;0.30;;;20.70;99.90;;;;;;5037510;28;20449;-82
2021/07/16 08:50:41;;;;;;;0.50;0.30;;;20.90;99.90;;;;;;5036663;28;20465;-83
2021/07/16 08:53:09;;;;;;;0.50;0.30;;;21.10;99.90;;;;;;5037306;28;20446;-84
2021/07/16 08:55:37;;;;;;;0.50;0.40;;;21.40;99.90;;;;;;5037059;28;20487;-84
2021/07/16 08:58:04;;;;;;;0.50;0.30;;;21.50;99.90;;;;;;5036121;28;20519;-84
2021/07/16 09:00:31;;;;;;;0.50;0.40;;;21.60;99.90;;;;;;5036591;28;20440;-84
2021/07/16 09:03:00;;;;;;;0.50;0.40;;;21.80;99.90;;;;;;5037171;28;20463;-84
2021/07/16 09:05:38;;;;;;;0.50;0.40;;;21.90;99.90;;;;;;5037259;28;20434;-84
2021/07/16 09:08:14;;;;;;;0.50;0.40;;;21.90;99.90;;;;;;5038223;28;20499;-85
2021/07/16 09:10:45;;;;;;;0.50;0.30;;;21.80;99.90;;;;;;5038856;28;20492;-85
2021/07/16 09:13:12;;;;;;;0.50;0.40;;;21.70;99.90;;;;;;5038428;28;20442;-84
2021/07/16 09:15:39;;;;;;;0.50;0.30;;;21.70;99.90;;;;;;5038650;28;20480;-84
2021/07/16 09:18:21;;;;;;;0.83;0.83;;;21.70;99.90;;;;;;5038335;28;20444;-84
2021/07/16 09:20:49;;;;;;;0.50;0.30;;;21.70;99.90;;;;;;5038640;28;20517;-84
2021/07/16 09:23:19;;;;;;;0.50;0.40;;;21.60;99.90;;;;;;5037934;28;20451;-84
2021/07/16 09:26:05;;;;;;;0.50;0.43;;;21.30;99.90;;;;;;5037686;28;20449;-84
2021/07/16 09:28:31;;;;;;;0.50;0.30;;;21.20;99.90;;;;;;5037487;28;20445;-84
2021/07/16 09:31:16;;;;;;;0.50;0.30;;;21.30;99.90;;;;;;5037428;28;20503;-84
2021/07/16 09:33:51;;;;;;;0.50;0.40;;;21.40;99.90;;;;;;5036931;28;20830;-84
2021/07/16 09:36:26;;;;;;;0.50;0.30;;;21.60;99.90;;;;;;5036738;28;20896;-85
2021/07/16 09:38:55;;;;;;;0.50;0.30;;;21.90;99.90;;;;;;5037230;28;20440;-85
2021/07/16 09:41:22;;;;;;;0.50;0.40;;;22.10;99.90;;;;;;5037880;28;20447;-85
2021/07/16 09:43:53;;;;;;;0.50;0.40;;;22.30;99.90;;;;;;5036414;28;20444;-84
2021/07/16 09:46:19;;;;;;;0.50;0.40;;;22.40;99.90;;;;;;5039943;28;20434;-83
2021/07/16 09:48:46;;;;;;;0.50;0.30;;;22.50;99.90;;;;;;5042509;28;20444;-85
2021/07/16 09:51:15;;;;;;;0.50;0.30;;;22.50;99.90;;;;;;5037694;28;20441;-85
2021/07/16 09:53:43;;;;;;;0.50;0.30;;;22.70;99.90;;;;;;5039398;28;20449;-83
2021/07/16 09:56:14;;;;;;;0.50;0.30;;;22.70;99.90;;;;;;5042690;28;20879;-84
2021/07/16 09:58:41;;;;;;;0.50;0.30;;;22.80;99.90;;;;;;5041601;28;20811;-85
2021/07/16 10:01:07;;;;;;;0.87;0.87;;;22.90;99.90;;;;;;5040892;28;20444;-85
2021/07/16 10:03:36;;;;;;;0.50;0.30;;;22.80;99.90;;;;;;5040558;28;20576;-84
2021/07/16 10:06:03;;;;;;;0.50;0.40;;;22.60;99.90;;;;;;5039220;28;20476;-82
2021/07/16 10:08:32;;;;;;;0.50;0.37;;;22.50;99.90;;;;;;5040210;28;20453;-84
2021/07/16 10:11:01;;;;;;;2.63;2.43;;;22.50;99.90;;;;;;5040681;28;20465;-84
2021/07/16 10:13:31;;;;;;;0.50;0.30;;;22.40;99.90;;;;;;5039602;28;20442;-85
2021/07/16 10:15:58;;;;;;;0.50;0.40;;;22.10;99.90;;;;;;5040520;28;20916;-82
2021/07/16 10:18:26;;;;;;;0.50;0.30;;;22.20;99.90;;;;;;5040389;28;20446;-84
2021/07/16 10:20:52;;;;;;;1.10;1.00;;;22.30;99.90;;;;;;5039902;28;20469;-84
2021/07/16 10:23:19;;;;;;;0.50;0.40;;;22.40;99.90;;;;;;5040828;28;20447;-85
2021/07/16 10:25:47;;;;;;;0.50;0.30;;;22.60;99.90;;;;;;5040234;28;20587;-84
2021/07/16 10:31:33;;;;;;;0.50;0.30;;;22.80;99.90;;;;;;5112667;27;1212199;-84
2021/07/16 10:34:01;;;;;;;0.50;0.30;;;24.00;99.90;;;;;;5135075;28;20195;-84
2021/07/16 10:36:41;;;;;;;0.50;0.40;;;24.90;99.90;;;;;;5135403;28;20459;-84
2021/07/16 10:39:09;;;;;;;0.50;0.40;;;25.80;99.90;;;;;;5134900;28;20430;-83
2021/07/16 10:41:40;;;;;;;0.50;0.40;;;26.10;99.90;;;;;;5136065;28;20434;-84
2021/07/16 10:44:07;;;;;;;2.50;0.67;;;26.00;99.90;;;;;;5134861;28;20439;-84
2021/07/16 10:46:37;;;;;;;0.70;0.50;;;26.00;99.90;;;;;;5135338;28;20465;-84
2021/07/16 10:49:05;;;;;;;0.50;0.30;;;25.80;99.90;;;;;;5135762;28;20501;-84
2021/07/16 10:51:33;;;;;;;0.50;0.40;;;25.60;99.90;;;;;;5135620;28;20446;-84
2021/07/16 10:54:01;;;;;;;0.50;0.30;;;25.00;99.90;;;;;;5134706;28;20465;-84
2021/07/16 10:56:40;;;;;;;0.50;0.30;;;24.60;99.90;;;;;;5135479;28;20989;-84
2021/07/16 10:59:07;;;;;;;0.50;0.37;;;24.40;99.90;;;;;;5135465;28;20431;-84
2021/07/16 11:01:38;;;;;;;0.50;0.30;;;24.10;99.90;;;;;;5135784;28;20973;-84
2021/07/16 11:04:07;;;;;;;0.50;0.40;;;23.70;99.90;;;;;;5134942;28;20434;-84
2021/07/16 11:06:54;;;;;;;0.50;0.30;;;23.30;99.90;;;;;;5134878;28;20461;-84
2021/07/16 11:09:42;;;;;;;0.83;0.83;;;22.90;99.90;;;;;;5134583;28;20501;-84
2021/07/16 11:12:25;;;;;;;0.50;0.30;;;22.60;99.90;;;;;;5135517;28;20425;-83
2021/07/16 11:14:52;;;;;;;0.50;0.30;;;22.60;99.90;;;;;;5135125;28;20477;-84
2021/07/16 11:17:39;;;;;;;0.50;0.30;;;22.70;99.90;;;;;;5143818;27;20458;-83
2021/07/16 11:20:14;;;;;;;0.50;0.40;;;22.80;99.90;;;;;;5144060;28;20905;-85
2021/07/16 11:22:56;;;;;;;0.50;0.30;;;23.00;99.90;;;;;;5134635;27;20445;-85
2021/07/16 11:25:23;;;;;;;0.50;0.40;;;23.30;99.90;;;;;;5134862;28;20434;-85
2021/07/16 11:27:50;;;;;;;0.53;0.43;;;23.20;99.90;;;;;;5134025;28;20434;-83
2021/07/16 11:30:17;;;;;;;0.50;0.40;;;23.30;99.90;;;;;;5133886;28;20530;-85
2021/07/16 11:32:44;;;;;;;0.50;0.50;;;23.90;99.90;;;;;;5134591;28;20446;-85
2021/07/16 11:35:13;;;;;;;0.70;0.50;;;24.70;99.90;;;;;;5134047;28;20488;-84
2021/07/16 11:37:42;;;;;;;0.50;0.30;;;25.10;99.90;;;;;;5133995;28;20436;-85
2021/07/16 11:40:10;;;;;;;1.13;0.60;;;25.20;99.90;;;;;;5135103;28;20442;-85
2021/07/16 11:42:40;;;;;;;0.50;0.30;;;25.30;99.90;;;;;;5119533;28;20445;-85
2021/07/16 11:45:10;;;;;;;0.50;0.30;;;24.70;99.90;;;;;;5120144;28;20444;-85
2021/07/16 11:47:38;;;;;;;0.80;0.80;;;24.60;99.90;;;;;;5120947;28;20442;-85
2021/07/16 11:50:07;;;;;;;0.50;0.30;;;24.30;99.90;;;;;;5120889;28;20503;-85
2021/07/16 11:52:35;;;;;;;0.50;0.30;;;24.40;99.90;;;;;;5120219;27;20444;-85
2021/07/16 11:55:09;;;;;;;0.50;0.30;;;24.50;99.90;;;;;;5120931;28;20435;-85
2021/07/16 11:57:37;;;;;;;0.50;0.40;;;24.50;99.90;;;;;;5119963;28;21071;-85
2021/07/16 12:00:10;;;;;;;0.50;0.30;;;24.80;99.90;;;;;;5120521;28;20488;-85
2021/07/16 12:02:37;;;;;;;0.50;0.30;;;24.70;99.90;;;;;;5120320;27;20465;-85
2021/07/16 12:05:04;;;;;;;0.50;0.30;;;24.60;99.90;;;;;;5120758;28;20436;-85
2021/07/16 12:07:37;;;;;;;0.50;0.30;;;24.60;99.90;;;;;;5119800;28;20468;-85
2021/07/16 12:10:14;;;;;;;1.77;1.37;;;24.20;99.90;;;;;;5120242;28;20462;-85
2021/07/16 12:12:42;;;;;;;0.50;0.40;;;23.70;99.90;;;;;;5119210;28;20548;-85
2021/07/16 12:15:10;;;;;;;0.50;0.40;;;23.30;99.90;;;;;;5119571;28;20456;-84
2021/07/16 12:17:40;;;;;;;2.20;1.17;;;23.20;99.90;;;;;;5119654;28;20443;-83
2021/07/16 12:20:09;;;;;;;0.50;0.40;;;23.00;99.90;;;;;;5119375;28;20434;-83
2021/07/16 12:22:43;;;;;;;0.50;0.40;;;22.90;99.90;;;;;;5119578;28;20446;-84
2021/07/16 12:25:11;;;;;;;0.50;0.30;;;22.80;99.90;;;;;;5119077;28;20446;-83
2021/07/16 12:27:38;;;;;;;0.50;0.37;;;22.70;99.90;;;;;;5119579;28;20459;-81
2021/07/16 12:30:07;;;;;;;0.50;0.30;;;22.70;99.90;;;;;;5118877;28;20482;-83
2021/07/16 12:32:36;;;;;;;0.50;0.30;;;22.90;99.90;;;;;;5120006;28;20449;-83
2021/07/16 12:35:17;;;;;;;0.50;0.40;;;22.90;99.90;;;;;;5119928;28;20849;-84
2021/07/16 12:37:47;;;;;;;0.50;0.30;;;22.90;99.90;;;;;;5118973;28;20444;-83
2021/07/16 12:40:20;;;;;;;0.50;0.40;;;22.80;99.90;;;;;;5119134;28;20479;-84
2021/07/16 12:43:02;;;;;;;0.50;0.40;;;22.60;99.90;;;;;;5119136;28;20431;-83
2021/07/16 12:45:44;;;;;;;0.50;0.33;;;22.50;99.90;;;;;;5119089;28;20430;-84
2021/07/16 12:48:15;;;;;;;0.50;0.30;;;22.30;99.90;;;;;;5118568;28;20442;-83
2021/07/16 12:50:42;;;;;;;0.50;0.40;;;22.20;99.90;;;;;;5119009;28;20473;-83
2021/07/16 12:53:11;;;;;;;0.50;0.30;;;22.10;99.90;;;;;;5118121;28;20437;-83
2021/07/16 12:55:40;;;;;;;0.50;0.40;;;22.00;99.90;;;;;;5118990;28;20495;-83